createdAt,value
2019-05-07T00:02:06.048Z,99.90
2019-05-07T00:04:34.756Z,99.90
2019-05-07T00:07:02.708Z,99.90
2019-05-07T00:09:32.319Z,99.90
2019-05-07T00:12:04.693Z,99.90
2019-05-07T00:14:31.964Z,99.90
2019-05-07T00:17:02.233Z,99.90
2019-05-07T00:19:32.248Z,99.90
2019-05-07T00:22:02.192Z,99.90
2019-05-07T00:24:29.251Z,99.90
2019-05-07T00:26:57.883Z,99.90
2019-05-07T00:29:25.991Z,99.90
2019-05-07T00:31:53.727Z,99.90
2019-05-07T00:34:24.699Z,99.90
2019-05-07T00:37:14.268Z,99.90
2019-05-07T00:39:52.921Z,99.90
2019-05-07T00:42:29.763Z,99.90
2019-05-07T00:45:20.373Z,99.90
2019-05-07T00:47:42.570Z,99.90
2019-05-07T00:50:16.291Z,99.90
2019-05-07T00:52:44.380Z,99.90
2019-05-07T00:55:12.659Z,99.90
2019-05-07T00:57:42.886Z,99.90
2019-05-07T01:00:13.067Z,99.90
2019-05-07T01:02:42.962Z,99.90
2019-05-07T01:05:12.299Z,99.90
2019-05-07T01:07:41.986Z,99.90
2019-05-07T01:10:12.594Z,99.90
2019-05-07T01:12:42.165Z,99.90
2019-05-07T01:15:10.012Z,99.90
2019-05-07T01:17:38.139Z,99.90
2019-05-07T01:20:07.057Z,99.90
2019-05-07T01:22:34.859Z,99.90
2019-05-07T01:25:04.745Z,99.90
2019-05-07T01:27:32.662Z,99.90
2019-05-07T01:30:02.588Z,99.90
2019-05-07T01:32:50.393Z,99.90
2019-05-07T01:35:24.951Z,99.90
2019-05-07T01:37:53.391Z,99.90
2019-05-07T01:40:22.823Z,99.90
2019-05-07T01:42:52.958Z,99.90
2019-05-07T01:45:22.033Z,99.90
2019-05-07T01:47:50.277Z,99.90
2019-05-07T01:50:19.848Z,99.90
2019-05-07T01:52:48.068Z,99.90
2019-05-07T01:55:18.764Z,99.90
2019-05-07T01:57:49.451Z,99.90
2019-05-07T02:00:18.112Z,99.90
2019-05-07T02:03:00.310Z,99.90
2019-05-07T02:05:47.096Z,99.90
2019-05-07T02:08:22.165Z,99.90
2019-05-07T02:10:56.387Z,99.90
2019-05-07T02:13:24.157Z,99.90
2019-05-07T02:16:00.258Z,99.90
2019-05-07T02:18:21.844Z,99.90
2019-05-07T02:20:52.049Z,99.90
2019-05-07T02:23:19.757Z,99.90
2019-05-07T02:25:47.536Z,99.90
2019-05-07T02:28:15.641Z,99.90
2019-05-07T02:30:44.449Z,99.90
2019-05-07T02:33:13.987Z,99.90
2019-05-07T02:35:43.918Z,99.90
2019-05-07T02:38:19.344Z,99.90
2019-05-07T02:41:06.544Z,99.90
2019-05-07T02:43:34.618Z,99.90
2019-05-07T02:46:31.958Z,99.90
2019-05-07T02:49:32.751Z,99.90
2019-05-07T02:52:08.326Z,99.90
2019-05-07T02:54:54.961Z,99.90
2019-05-07T02:57:23.951Z,99.90
2019-05-07T02:59:54.339Z,99.90
2019-05-07T03:02:24.023Z,99.90
2019-05-07T03:04:53.381Z,99.90
2019-05-07T03:07:24.144Z,99.90
2019-05-07T03:09:53.564Z,99.90
2019-05-07T03:12:49.195Z,99.90
2019-05-07T03:15:26.869Z,99.90
2019-05-07T03:17:54.899Z,99.90
2019-05-07T03:20:27.686Z,99.90
2019-05-07T03:23:26.516Z,99.90
2019-05-07T03:25:57.787Z,99.90
2019-05-07T03:28:27.252Z,99.90
2019-05-07T03:31:16.679Z,99.90
2019-05-07T03:33:55.976Z,99.90
2019-05-07T03:36:38.829Z,99.90
2019-05-07T03:39:06.752Z,99.90
2019-05-07T03:41:34.784Z,99.90
2019-05-07T03:44:13.340Z,99.90
2019-05-07T03:46:56.717Z,99.90
2019-05-07T03:49:26.525Z,99.90
2019-05-07T03:51:55.614Z,99.90
2019-05-07T03:54:24.020Z,99.90
2019-05-07T03:56:53.003Z,99.90
2019-05-07T03:59:23.130Z,99.90
2019-05-07T04:01:53.619Z,99.90
2019-05-07T04:04:22.913Z,99.90
2019-05-07T04:06:49.956Z,99.90
2019-05-07T04:09:18.097Z,99.90
2019-05-07T04:11:46.480Z,99.90
2019-05-07T04:14:14.560Z,99.90
2019-05-07T04:16:44.095Z,99.90
2019-05-07T04:19:13.268Z,99.90
2019-05-07T04:21:43.476Z,99.90
2019-05-07T04:24:36.209Z,99.90
2019-05-07T04:27:13.002Z,99.90
2019-05-07T04:29:42.831Z,99.90
2019-05-07T04:32:14.221Z,99.90
2019-05-07T04:35:04.301Z,99.90
2019-05-07T04:37:33.242Z,99.90
2019-05-07T04:40:03.177Z,99.90
2019-05-07T04:42:33.335Z,99.90
2019-05-07T04:45:04.071Z,99.90
2019-05-07T04:47:42.555Z,99.90
2019-05-07T04:50:03.813Z,99.90
2019-05-07T04:52:34.097Z,99.90
2019-05-07T04:55:04.088Z,99.90
2019-05-07T04:57:32.994Z,99.90
2019-05-07T05:00:03.458Z,99.90
2019-05-07T05:02:39.560Z,99.90
2019-05-07T05:05:07.516Z,99.90
2019-05-07T05:07:35.301Z,99.90
2019-05-07T05:10:03.320Z,99.90
2019-05-07T05:12:32.662Z,99.90
2019-05-07T05:15:02.149Z,99.90
2019-05-07T05:17:32.064Z,99.90
2019-05-07T05:20:02.992Z,99.90
2019-05-07T05:22:45.417Z,99.90
2019-05-07T05:25:28.056Z,99.90
2019-05-07T05:27:58.610Z,99.90
2019-05-07T05:30:37.066Z,99.90
2019-05-07T05:33:04.818Z,99.90
2019-05-07T05:35:33.004Z,99.90
2019-05-07T05:38:03.057Z,99.90
2019-05-07T05:40:32.018Z,99.90
2019-05-07T05:43:12.758Z,99.90
2019-05-07T05:45:42.725Z,99.90
2019-05-07T05:48:13.296Z,99.90
2019-05-07T05:50:59.036Z,99.90
2019-05-07T05:53:46.531Z,99.90
2019-05-07T05:56:23.429Z,99.90
2019-05-07T05:58:59.763Z,99.90
2019-05-07T06:01:38.324Z,99.90
2019-05-07T06:04:15.572Z,99.90
2019-05-07T06:06:53.973Z,99.90
2019-05-07T06:09:57.479Z,99.90
2019-05-07T06:12:39.710Z,99.90
2019-05-07T06:15:13.715Z,99.90
2019-05-07T06:18:17.929Z,99.90
2019-05-07T06:20:56.688Z,99.90
2019-05-07T06:23:35.653Z,99.90
2019-05-07T06:26:05.126Z,99.90
2019-05-07T06:28:33.647Z,99.90
2019-05-07T06:31:02.147Z,99.90
2019-05-07T06:33:32.302Z,99.90
2019-05-07T06:36:00.199Z,99.60
2019-05-07T06:38:31.972Z,97.80
2019-05-07T06:41:25.841Z,96.40
2019-05-07T06:44:01.943Z,94.60
2019-05-07T06:46:29.535Z,92.70
2019-05-07T06:48:57.663Z,90.20
2019-05-07T06:51:25.729Z,91.00
2019-05-07T06:53:53.492Z,91.00
2019-05-07T06:56:23.043Z,89.80
2019-05-07T06:59:05.683Z,89.10
2019-05-07T07:01:52.980Z,84.10
2019-05-07T07:04:25.286Z,82.20
2019-05-07T07:07:30.982Z,82.10
2019-05-07T07:10:02.741Z,79.90
2019-05-07T07:12:33.034Z,77.20
2019-05-07T07:15:02.575Z,75.40
2019-05-07T07:17:32.662Z,75.20
2019-05-07T07:20:02.067Z,71.80
2019-05-07T07:22:32.004Z,70.50
2019-05-07T07:25:02.375Z,71.20
2019-05-07T07:27:32.199Z,68.30
2019-05-07T07:30:08.076Z,68.40
2019-05-07T07:32:38.063Z,67.60
2019-05-07T07:35:08.273Z,67.20
2019-05-07T07:37:40.286Z,64.60
2019-05-07T07:40:32.850Z,64.10
2019-05-07T07:43:04.885Z,64.80
2019-05-07T07:45:32.428Z,62.60
2019-05-07T07:48:02.291Z,63.90
2019-05-07T07:50:32.384Z,64.30
2019-05-07T07:53:02.335Z,62.90
2019-05-07T07:55:35.939Z,59.50
2019-05-07T07:58:31.500Z,57.60
2019-05-07T08:01:23.860Z,59.10
2019-05-07T08:03:52.292Z,57.50
2019-05-07T08:06:22.423Z,56.00
2019-05-07T08:08:52.933Z,56.10
2019-05-07T08:11:22.017Z,58.70
2019-05-07T08:13:52.766Z,57.00
2019-05-07T08:16:22.213Z,55.30
2019-05-07T08:18:52.139Z,57.10
2019-05-07T08:21:22.536Z,54.40
2019-05-07T08:23:49.911Z,53.90
2019-05-07T08:26:17.929Z,52.50
2019-05-07T08:28:48.131Z,52.70
2019-05-07T08:31:42.827Z,51.90
2019-05-07T08:34:31.950Z,50.40
2019-05-07T08:37:01.856Z,49.60
2019-05-07T08:39:32.354Z,50.50
2019-05-07T08:42:02.096Z,49.90
2019-05-07T08:44:37.618Z,46.40
2019-05-07T08:47:27.871Z,46.80
2019-05-07T08:49:55.602Z,47.30
2019-05-07T08:52:26.138Z,46.70
2019-05-07T08:54:53.683Z,47.00
2019-05-07T08:57:22.772Z,46.90
2019-05-07T08:59:58.377Z,44.90
2019-05-07T09:02:22.213Z,44.50
2019-05-07T09:04:52.334Z,44.60
2019-05-07T09:07:21.867Z,44.60
2019-05-07T09:09:52.072Z,44.70
2019-05-07T09:12:19.527Z,43.00
2019-05-07T09:14:47.593Z,42.10
2019-05-07T09:17:15.659Z,44.20
2019-05-07T09:19:50.570Z,43.50
2019-05-07T09:22:25.815Z,41.20
2019-05-07T09:24:53.523Z,43.80
2019-05-07T09:27:37.132Z,41.70
2019-05-07T09:30:16.858Z,42.00
2019-05-07T09:33:04.505Z,40.20
2019-05-07T09:35:39.676Z,41.30
2019-05-07T09:38:07.267Z,39.80
2019-05-07T09:40:35.440Z,42.50
2019-05-07T09:43:04.250Z,41.60
2019-05-07T09:45:32.829Z,41.00
2019-05-07T09:48:02.813Z,39.90
2019-05-07T09:50:32.533Z,42.50
2019-05-07T09:53:02.134Z,43.00
2019-05-07T09:55:32.305Z,41.10
2019-05-07T09:58:01.922Z,41.60
2019-05-07T10:00:31.969Z,39.30
2019-05-07T10:03:00.595Z,39.50
2019-05-07T10:05:29.379Z,41.00
2019-05-07T10:07:57.532Z,40.00
2019-05-07T10:10:25.679Z,41.50
2019-05-07T10:13:02.445Z,41.60
2019-05-07T10:15:32.901Z,39.90
2019-05-07T10:18:17.056Z,40.40
2019-05-07T10:20:46.207Z,38.80
2019-05-07T10:23:22.840Z,38.70
2019-05-07T10:25:53.602Z,38.90
2019-05-07T10:28:22.824Z,39.40
2019-05-07T10:30:52.183Z,40.40
2019-05-07T10:33:20.283Z,38.70
2019-05-07T10:35:47.975Z,40.40
2019-05-07T10:38:15.940Z,38.20
2019-05-07T10:40:43.651Z,38.10
2019-05-07T10:43:12.073Z,37.30
2019-05-07T10:46:12.784Z,35.90
2019-05-07T10:48:45.571Z,36.20
2019-05-07T10:51:13.947Z,36.30
2019-05-07T10:53:42.436Z,36.60
2019-05-07T10:56:11.885Z,35.80
2019-05-07T10:58:41.743Z,36.40
2019-05-07T11:01:12.043Z,36.20
2019-05-07T11:03:41.074Z,36.50
2019-05-07T11:06:08.860Z,35.60
2019-05-07T11:08:36.628Z,35.90
2019-05-07T11:11:04.684Z,36.80
2019-05-07T11:13:32.394Z,36.70
2019-05-07T11:16:11.785Z,37.90
2019-05-07T11:18:43.602Z,35.30
2019-05-07T11:21:12.043Z,33.10
2019-05-07T11:23:41.900Z,33.10
2019-05-07T11:26:11.715Z,33.20
2019-05-07T11:28:39.441Z,34.30
2019-05-07T11:31:07.898Z,32.50
2019-05-07T11:33:36.056Z,32.70
2019-05-07T11:36:04.462Z,32.80
2019-05-07T11:38:33.529Z,32.30
2019-05-07T11:41:02.441Z,32.40
2019-05-07T11:43:48.215Z,32.20
2019-05-07T11:46:35.406Z,31.90
2019-05-07T11:49:27.251Z,32.30
2019-05-07T11:52:06.026Z,32.50
2019-05-07T11:54:34.144Z,34.70
2019-05-07T11:57:02.686Z,33.10
2019-05-07T11:59:32.486Z,32.00
2019-05-07T12:02:03.322Z,32.60
2019-05-07T12:04:32.101Z,31.60
2019-05-07T12:07:02.566Z,31.00
2019-05-07T12:09:33.091Z,31.70
2019-05-07T12:12:02.415Z,29.80
2019-05-07T12:14:32.504Z,30.60
2019-05-07T12:17:02.565Z,32.70
2019-05-07T12:19:30.379Z,32.10
2019-05-07T12:21:59.723Z,31.70
2019-05-07T12:24:28.035Z,32.70
2019-05-07T12:26:56.006Z,34.70
2019-05-07T12:29:24.418Z,36.10
2019-05-07T12:32:10.586Z,35.60
2019-05-07T12:34:42.544Z,35.80
2019-05-07T12:37:12.302Z,35.30
2019-05-07T12:39:42.319Z,35.00
2019-05-07T12:42:12.083Z,34.00
2019-05-07T12:44:42.485Z,33.20
2019-05-07T12:47:12.075Z,33.20
2019-05-07T12:49:40.025Z,34.70
2019-05-07T12:52:33.505Z,34.30
2019-05-07T12:55:18.962Z,34.70
2019-05-07T12:57:47.073Z,33.10
2019-05-07T13:00:34.757Z,34.20
2019-05-07T13:03:27.983Z,33.10
2019-05-07T13:05:56.317Z,35.30
2019-05-07T13:08:24.144Z,34.40
2019-05-07T13:10:52.957Z,33.90
2019-05-07T13:13:21.107Z,34.40
2019-05-07T13:15:49.183Z,33.10
2019-05-07T13:18:18.169Z,33.30
2019-05-07T13:20:48.816Z,33.40
2019-05-07T13:23:16.621Z,34.60
2019-05-07T13:25:44.476Z,35.80
2019-05-07T13:28:12.681Z,34.60
2019-05-07T13:30:43.621Z,34.50
2019-05-07T13:33:12.194Z,34.00
2019-05-07T13:35:41.969Z,33.40
2019-05-07T13:38:29.673Z,33.00
2019-05-07T13:41:14.558Z,33.00
2019-05-07T13:44:20.163Z,34.20
2019-05-07T13:46:49.686Z,34.40
2019-05-07T13:49:18.315Z,35.10
2019-05-07T13:51:59.791Z,34.80
2019-05-07T13:54:16.243Z,35.10
2019-05-07T13:56:45.020Z,35.50
2019-05-07T13:59:13.628Z,35.00
2019-05-07T14:02:05.034Z,35.30
2019-05-07T14:04:33.419Z,34.90
2019-05-07T14:07:01.947Z,36.40
2019-05-07T14:09:29.731Z,35.30
2019-05-07T14:12:08.736Z,35.60
2019-05-07T14:14:36.466Z,35.30
2019-05-07T14:17:04.891Z,36.00
2019-05-07T14:19:32.851Z,35.10
2019-05-07T14:22:14.760Z,35.20
2019-05-07T14:24:32.791Z,35.60
2019-05-07T14:27:02.112Z,35.10
2019-05-07T14:29:32.024Z,35.00
2019-05-07T14:32:37.560Z,35.90
2019-05-07T14:35:41.068Z,35.20
2019-05-07T14:38:15.320Z,35.40
2019-05-07T14:40:43.407Z,36.40
2019-05-07T14:43:21.955Z,36.20
2019-05-07T14:45:49.861Z,35.60
2019-05-07T14:48:17.732Z,34.80
2019-05-07T14:50:45.484Z,35.00
2019-05-07T14:53:13.634Z,35.80
2019-05-07T14:55:41.925Z,35.90
2019-05-07T14:58:12.236Z,34.40
2019-05-07T15:00:39.781Z,35.10
2019-05-07T15:03:07.767Z,36.00
2019-05-07T15:05:35.616Z,35.70
2019-05-07T15:08:10.764Z,36.10
2019-05-07T15:10:33.748Z,38.20
2019-05-07T15:13:02.325Z,38.50
2019-05-07T15:15:30.376Z,37.50
2019-05-07T15:18:02.732Z,36.30
2019-05-07T15:20:32.871Z,36.40
2019-05-07T15:23:06.716Z,35.60
2019-05-07T15:25:45.207Z,40.20
2019-05-07T15:28:13.650Z,41.80
2019-05-07T15:30:57.470Z,41.60
2019-05-07T15:33:25.712Z,41.90
2019-05-07T15:35:53.909Z,42.60
2019-05-07T15:38:21.812Z,43.90
2019-05-07T15:40:51.949Z,44.70
2019-05-07T15:43:19.817Z,46.20
2019-05-07T15:45:47.751Z,46.80
2019-05-07T15:48:18.535Z,47.30
2019-05-07T15:50:46.699Z,47.40
2019-05-07T15:53:19.195Z,47.60
2019-05-07T15:55:47.078Z,48.10
2019-05-07T15:58:15.267Z,48.10
2019-05-07T16:00:43.292Z,48.60
2019-05-07T16:03:18.950Z,48.40
2019-05-07T16:05:47.638Z,48.70
2019-05-07T16:08:16.890Z,48.60
2019-05-07T16:10:45.453Z,49.00
2019-05-07T16:13:16.527Z,49.10
2019-05-07T16:15:44.976Z,49.40
2019-05-07T16:18:19.652Z,49.50
2019-05-07T16:20:48.099Z,49.50
2019-05-07T16:23:18.181Z,49.90
2019-05-07T16:25:46.477Z,50.20
2019-05-07T16:28:15.535Z,50.60
2019-05-07T16:30:43.570Z,50.70
2019-05-07T16:33:12.785Z,50.60
2019-05-07T16:35:42.555Z,50.40
2019-05-07T16:38:14.490Z,50.70
2019-05-07T16:40:42.890Z,50.50
2019-05-07T16:43:11.977Z,51.50
2019-05-07T16:45:42.278Z,51.60
2019-05-07T16:48:11.894Z,51.90
2019-05-07T16:50:40.423Z,52.20
2019-05-07T16:53:08.272Z,52.80
2019-05-07T16:55:37.297Z,53.20
2019-05-07T16:58:12.389Z,53.80
2019-05-07T17:00:43.466Z,54.10
2019-05-07T17:03:15.442Z,54.70
2019-05-07T17:05:44.096Z,54.50
2019-05-07T17:08:31.747Z,54.70
2019-05-07T17:10:59.417Z,55.20
2019-05-07T17:13:27.452Z,55.40
2019-05-07T17:15:58.938Z,55.60
2019-05-07T17:18:27.718Z,55.60
2019-05-07T17:20:56.378Z,56.00
2019-05-07T17:23:25.167Z,56.20
2019-05-07T17:25:53.330Z,56.30
2019-05-07T17:28:22.855Z,56.40
2019-05-07T17:30:52.454Z,56.80
2019-05-07T17:33:20.292Z,57.00
2019-05-07T17:35:48.991Z,57.30
2019-05-07T17:38:17.183Z,57.20
2019-05-07T17:40:44.935Z,57.50
2019-05-07T17:43:12.756Z,57.50
2019-05-07T17:45:42.979Z,57.80
2019-05-07T17:48:12.322Z,58.20
2019-05-07T17:50:49.201Z,58.40
2019-05-07T17:53:16.992Z,58.30
2019-05-07T17:55:44.851Z,61.20
2019-05-07T17:58:13.017Z,67.10
2019-05-07T18:00:42.995Z,73.40
2019-05-07T18:03:32.223Z,75.20
2019-05-07T18:06:02.223Z,72.80
2019-05-07T18:08:29.822Z,75.60
2019-05-07T18:10:58.099Z,78.20
2019-05-07T18:13:26.643Z,78.20
2019-05-07T18:15:56.303Z,79.20
2019-05-07T18:18:25.302Z,80.10
2019-05-07T18:20:54.026Z,78.10
2019-05-07T18:23:22.560Z,77.70
2019-05-07T18:25:53.082Z,77.60
2019-05-07T18:28:21.670Z,77.70
2019-05-07T18:30:51.376Z,77.90
2019-05-07T18:33:45.132Z,77.60
2019-05-07T18:36:13.050Z,77.20
2019-05-07T18:38:42.411Z,76.40
2019-05-07T18:41:12.188Z,76.50
2019-05-07T18:43:42.178Z,76.80
2019-05-07T18:46:12.642Z,77.40
2019-05-07T18:48:42.439Z,77.60
2019-05-07T18:51:11.987Z,78.70
2019-05-07T18:53:39.709Z,79.40
2019-05-07T18:56:08.051Z,79.60
2019-05-07T18:58:36.415Z,80.90
2019-05-07T19:01:08.624Z,81.60
2019-05-07T19:03:37.004Z,82.50
2019-05-07T19:06:04.765Z,83.70
2019-05-07T19:08:35.461Z,84.20
2019-05-07T19:11:05.672Z,84.90
2019-05-07T19:13:33.259Z,85.80
2019-05-07T19:16:02.856Z,86.00
2019-05-07T19:18:32.190Z,86.30
2019-05-07T19:21:00.801Z,87.00
2019-05-07T19:23:28.897Z,87.60
2019-05-07T19:25:57.335Z,88.20
2019-05-07T19:28:29.851Z,88.80
2019-05-07T19:30:57.595Z,89.30
2019-05-07T19:33:27.114Z,89.90
2019-05-07T19:35:55.106Z,91.40
2019-05-07T19:38:23.169Z,94.20
2019-05-07T19:40:52.808Z,95.40
2019-05-07T19:43:20.914Z,95.00
2019-05-07T19:45:49.048Z,94.60
2019-05-07T19:48:17.126Z,94.40
2019-05-07T19:50:44.912Z,95.10
2019-05-07T19:53:12.811Z,94.00
2019-05-07T19:55:58.989Z,93.90
2019-05-07T19:58:27.133Z,93.90
2019-05-07T20:00:57.317Z,94.00
2019-05-07T20:03:25.438Z,94.20
2019-05-07T20:05:54.048Z,93.90
2019-05-07T20:08:21.884Z,93.80
2019-05-07T20:10:56.172Z,94.50
2019-05-07T20:13:23.996Z,95.00
2019-05-07T20:15:57.780Z,95.20
2019-05-07T20:18:25.899Z,95.50
2019-05-07T20:20:54.055Z,95.50
2019-05-07T20:23:22.756Z,95.80
2019-05-07T20:25:52.726Z,95.90
2019-05-07T20:28:21.852Z,96.00
2019-05-07T20:30:49.982Z,96.00
2019-05-07T20:33:17.696Z,96.10
2019-05-07T20:35:45.490Z,96.70
2019-05-07T20:38:13.977Z,97.30
2019-05-07T20:40:42.370Z,97.30
2019-05-07T20:43:12.638Z,97.30
2019-05-07T20:45:42.444Z,97.40
2019-05-07T20:48:10.907Z,97.60
2019-05-07T20:50:38.739Z,98.00
2019-05-07T20:53:06.876Z,98.20
2019-05-07T20:55:43.096Z,98.40
2019-05-07T20:58:12.846Z,98.60
2019-05-07T21:00:43.217Z,98.70
2019-05-07T21:03:19.834Z,99.10
2019-05-07T21:05:49.315Z,98.80
2019-05-07T21:08:17.427Z,99.10
2019-05-07T21:10:45.283Z,98.80
2019-05-07T21:13:26.789Z,99.10
2019-05-07T21:15:42.910Z,99.30
2019-05-07T21:18:12.313Z,99.30
2019-05-07T21:20:42.062Z,99.50
2019-05-07T21:23:12.205Z,99.30
2019-05-07T21:25:43.611Z,99.60
2019-05-07T21:28:12.001Z,99.80
2019-05-07T21:30:39.335Z,99.90
2019-05-07T21:33:07.519Z,99.90
2019-05-07T21:35:35.778Z,99.90
2019-05-07T21:38:04.315Z,99.90
2019-05-07T21:40:32.508Z,99.90
2019-05-07T21:43:00.404Z,99.90
2019-05-07T21:45:28.529Z,99.90
2019-05-07T21:47:56.372Z,99.90
2019-05-07T21:50:24.494Z,99.90
2019-05-07T21:52:57.689Z,99.90
2019-05-07T21:55:32.108Z,99.90
2019-05-07T21:58:24.909Z,99.90
2019-05-07T22:01:17.270Z,99.90
2019-05-07T22:03:48.847Z,99.90
2019-05-07T22:06:17.383Z,99.90
2019-05-07T22:08:45.200Z,99.90
2019-05-07T22:11:13.095Z,99.90
2019-05-07T22:13:43.288Z,99.90
2019-05-07T22:16:13.010Z,99.90
2019-05-07T22:18:42.627Z,99.90
2019-05-07T22:21:12.457Z,99.90
2019-05-07T22:23:42.583Z,99.90
2019-05-07T22:26:20.334Z,99.90
2019-05-07T22:28:41.929Z,99.90
2019-05-07T22:31:32.105Z,99.90
2019-05-07T22:34:31.071Z,99.90
2019-05-07T22:36:59.959Z,99.90
2019-05-07T22:39:27.768Z,99.90
2019-05-07T22:41:55.930Z,99.90
2019-05-07T22:44:26.156Z,99.90
2019-05-07T22:46:53.734Z,99.90
2019-05-07T22:49:22.908Z,99.90
2019-05-07T22:51:54.568Z,99.90
2019-05-07T22:54:22.597Z,99.90
2019-05-07T22:57:05.396Z,99.90
2019-05-07T22:59:33.944Z,99.90
2019-05-07T23:02:03.517Z,99.90
2019-05-07T23:04:32.545Z,99.90
2019-05-07T23:07:02.215Z,99.90
2019-05-07T23:09:30.494Z,99.90
2019-05-07T23:11:58.249Z,99.90
2019-05-07T23:14:25.977Z,99.90
2019-05-07T23:16:55.425Z,99.90
2019-05-07T23:19:23.754Z,99.90
2019-05-07T23:21:52.286Z,99.90
2019-05-07T23:24:22.570Z,99.90
2019-05-07T23:26:51.183Z,99.90
2019-05-07T23:29:22.214Z,99.90
2019-05-07T23:31:49.592Z,99.90
2019-05-07T23:34:17.386Z,99.90
2019-05-07T23:36:46.056Z,99.90
2019-05-07T23:39:15.859Z,99.90
2019-05-07T23:41:47.824Z,99.90
2019-05-07T23:44:19.383Z,99.90
2019-05-07T23:46:47.557Z,99.90
2019-05-07T23:49:15.339Z,99.90
2019-05-07T23:51:43.996Z,99.90
2019-05-07T23:54:12.312Z,99.90
2019-05-07T23:56:42.468Z,99.90
2019-05-07T23:59:09.907Z,99.90
